createdAt,value
2019-02-16T00:00:05.514Z,0.00
2019-02-16T00:01:05.526Z,0.00
2019-02-16T00:02:05.539Z,0.00
2019-02-16T00:03:05.546Z,0.00
2019-02-16T00:04:05.560Z,0.00
2019-02-16T00:05:05.571Z,0.00
2019-02-16T00:06:05.587Z,0.00
2019-02-16T00:07:05.598Z,0.00
2019-02-16T00:08:05.610Z,0.00
2019-02-16T00:09:05.622Z,0.00
2019-02-16T00:10:05.632Z,0.00
2019-02-16T00:11:05.643Z,0.00
2019-02-16T00:12:05.657Z,0.00
2019-02-16T00:13:05.667Z,0.00
2019-02-16T00:14:05.683Z,0.00
2019-02-16T00:15:05.693Z,0.00
2019-02-16T00:16:05.702Z,0.00
2019-02-16T00:17:05.719Z,0.00
2019-02-16T00:18:05.727Z,0.00
2019-02-16T00:19:05.736Z,0.00
2019-02-16T00:20:05.752Z,0.00
2019-02-16T00:21:05.760Z,0.00
2019-02-16T00:22:05.778Z,0.00
2019-02-16T00:23:05.787Z,0.00
2019-02-16T00:24:05.798Z,0.00
2019-02-16T00:25:05.813Z,0.00
2019-02-16T00:26:05.821Z,0.00
2019-02-16T00:27:05.833Z,0.00
2019-02-16T00:28:05.846Z,0.00
2019-02-16T00:29:05.856Z,0.00
2019-02-16T00:30:05.869Z,0.00
2019-02-16T00:31:05.885Z,0.00
2019-02-16T00:32:05.890Z,0.00
2019-02-16T00:33:05.910Z,0.00
2019-02-16T00:34:05.918Z,0.00
2019-02-16T00:35:05.931Z,0.00
2019-02-16T00:36:05.943Z,0.00
2019-02-16T00:37:05.950Z,0.00
2019-02-16T00:38:05.963Z,0.00
2019-02-16T00:39:05.974Z,0.00
2019-02-16T00:40:06.017Z,0.00
2019-02-16T00:41:05.997Z,0.00
2019-02-16T00:42:06.013Z,0.00
2019-02-16T00:43:06.023Z,0.00
2019-02-16T00:44:06.033Z,0.00
2019-02-16T00:45:06.046Z,0.00
2019-02-16T00:46:06.061Z,0.00
2019-02-16T00:47:06.072Z,0.00
2019-02-16T00:48:06.088Z,0.00
2019-02-16T00:49:06.092Z,0.00
2019-02-16T00:50:06.102Z,0.00
2019-02-16T00:51:13.388Z,0.00
2019-02-16T00:52:06.124Z,0.00
2019-02-16T00:53:06.137Z,0.00
2019-02-16T00:54:06.150Z,0.00
2019-02-16T00:55:06.162Z,0.00
2019-02-16T00:56:06.176Z,0.00
2019-02-16T00:57:06.184Z,0.00
2019-02-16T00:58:06.193Z,0.00
2019-02-16T00:59:06.203Z,0.00
2019-02-16T01:00:06.215Z,0.00
2019-02-16T01:01:06.237Z,0.00
2019-02-16T01:02:06.261Z,0.00
2019-02-16T01:03:06.323Z,0.00
2019-02-16T01:04:06.317Z,0.00
2019-02-16T01:05:06.348Z,0.00
2019-02-16T01:06:06.311Z,0.00
2019-02-16T01:07:06.322Z,0.00
2019-02-16T01:08:06.391Z,0.00
2019-02-16T01:09:06.384Z,0.00
2019-02-16T01:10:06.376Z,0.00
2019-02-16T01:11:06.382Z,0.00
2019-02-16T01:12:06.390Z,0.00
2019-02-16T01:13:06.376Z,0.00
2019-02-16T01:14:06.391Z,0.00
2019-02-16T01:15:06.389Z,0.00
2019-02-16T01:16:06.398Z,0.00
2019-02-16T01:17:06.411Z,0.00
2019-02-16T01:18:06.423Z,0.00
2019-02-16T01:19:06.434Z,0.00
2019-02-16T01:20:06.520Z,0.00
2019-02-16T01:21:06.459Z,0.00
2019-02-16T01:22:06.464Z,0.00
2019-02-16T01:23:06.480Z,0.00
2019-02-16T01:24:06.485Z,0.00
2019-02-16T01:25:06.498Z,0.00
2019-02-16T01:26:06.509Z,0.00
2019-02-16T01:27:06.521Z,0.00
2019-02-16T01:28:06.532Z,0.00
2019-02-16T01:29:06.543Z,0.00
2019-02-16T01:30:06.552Z,0.00
2019-02-16T01:31:06.564Z,0.00
2019-02-16T01:32:06.574Z,0.00
2019-02-16T01:33:06.586Z,0.00
2019-02-16T01:34:06.598Z,0.00
2019-02-16T01:35:06.605Z,0.00
2019-02-16T01:36:06.619Z,0.00
2019-02-16T01:37:06.631Z,0.00
2019-02-16T01:38:06.644Z,0.00
2019-02-16T01:39:06.655Z,0.00
2019-02-16T01:40:06.699Z,0.00
2019-02-16T01:41:06.677Z,0.00
2019-02-16T01:42:06.688Z,0.00
2019-02-16T01:43:06.698Z,0.00
2019-02-16T01:44:06.711Z,0.00
2019-02-16T01:45:06.722Z,0.00
2019-02-16T01:46:06.734Z,0.00
2019-02-16T01:47:06.748Z,0.00
2019-02-16T01:48:06.757Z,0.00
2019-02-16T01:49:06.769Z,0.00
2019-02-16T01:50:06.775Z,0.00
2019-02-16T01:51:06.790Z,0.00
2019-02-16T01:52:06.800Z,0.00
2019-02-16T01:53:06.811Z,0.00
2019-02-16T01:54:06.819Z,0.00
2019-02-16T01:55:06.834Z,0.00
2019-02-16T01:56:06.840Z,0.00
2019-02-16T01:57:06.853Z,0.00
2019-02-16T01:58:06.865Z,0.00
2019-02-16T01:59:06.875Z,0.00
2019-02-16T02:00:06.889Z,0.00
2019-02-16T02:01:06.898Z,0.00
2019-02-16T02:02:06.907Z,0.00
2019-02-16T02:03:06.919Z,0.00
2019-02-16T02:04:06.928Z,0.00
2019-02-16T02:05:06.939Z,0.00
2019-02-16T02:06:06.951Z,0.00
2019-02-16T02:07:06.959Z,0.00
2019-02-16T02:08:06.970Z,0.00
2019-02-16T02:09:06.982Z,0.00
2019-02-16T02:10:06.996Z,0.00
2019-02-16T02:11:07.009Z,0.00
2019-02-16T02:12:07.018Z,0.00
2019-02-16T02:13:07.029Z,0.00
2019-02-16T02:14:07.040Z,0.00
2019-02-16T02:15:07.049Z,0.00
2019-02-16T02:16:07.063Z,0.00
2019-02-16T02:17:07.071Z,0.00
2019-02-16T02:18:07.086Z,0.00
2019-02-16T02:19:07.096Z,0.00
2019-02-16T02:20:07.107Z,0.00
2019-02-16T02:21:07.116Z,0.00
2019-02-16T02:22:07.124Z,0.00
2019-02-16T02:23:07.137Z,0.00
2019-02-16T02:24:07.147Z,0.00
2019-02-16T02:25:07.161Z,0.00
2019-02-16T02:26:07.170Z,0.00
2019-02-16T02:27:07.182Z,0.00
2019-02-16T02:28:07.192Z,0.00
2019-02-16T02:29:07.271Z,0.00
2019-02-16T02:30:07.215Z,0.00
2019-02-16T02:31:07.226Z,0.00
2019-02-16T02:32:07.235Z,0.00
2019-02-16T02:33:07.255Z,0.00
2019-02-16T02:34:07.269Z,0.00
2019-02-16T02:35:07.285Z,0.00
2019-02-16T02:36:07.281Z,0.00
2019-02-16T02:37:07.294Z,0.00
2019-02-16T02:38:07.305Z,0.00
2019-02-16T02:39:07.315Z,0.00
2019-02-16T02:40:07.327Z,0.00
2019-02-16T02:41:07.336Z,0.00
2019-02-16T02:42:07.346Z,0.00
2019-02-16T02:43:07.357Z,0.00
2019-02-16T02:44:07.366Z,0.00
2019-02-16T02:45:07.377Z,0.00
2019-02-16T02:46:07.392Z,0.00
2019-02-16T02:47:07.402Z,0.00
2019-02-16T02:48:07.416Z,0.00
2019-02-16T02:49:07.423Z,0.00
2019-02-16T02:50:07.436Z,0.00
2019-02-16T02:51:07.447Z,0.00
2019-02-16T02:52:07.454Z,0.00
2019-02-16T02:53:07.470Z,0.00
2019-02-16T02:54:07.474Z,0.00
2019-02-16T02:55:07.485Z,0.00
2019-02-16T02:56:07.499Z,0.00
2019-02-16T02:57:07.509Z,0.00
2019-02-16T02:58:07.524Z,0.00
2019-02-16T02:59:07.532Z,0.00
2019-02-16T03:00:07.543Z,0.00
2019-02-16T03:01:07.559Z,0.00
2019-02-16T03:02:07.563Z,0.00
2019-02-16T03:03:07.575Z,0.00
2019-02-16T03:04:07.585Z,0.00
2019-02-16T03:05:07.598Z,0.00
2019-02-16T03:06:07.610Z,0.00
2019-02-16T03:07:07.622Z,0.00
2019-02-16T03:08:07.631Z,0.00
2019-02-16T03:09:07.642Z,0.00
2019-02-16T03:10:07.675Z,0.00
2019-02-16T03:11:07.664Z,0.00
2019-02-16T03:12:07.677Z,0.00
2019-02-16T03:13:07.687Z,0.00
2019-02-16T03:14:07.704Z,0.00
2019-02-16T03:15:07.708Z,0.00
2019-02-16T03:16:07.717Z,0.00
2019-02-16T03:17:07.728Z,0.00
2019-02-16T03:18:07.749Z,0.00
2019-02-16T03:19:07.752Z,0.00
2019-02-16T03:20:07.763Z,0.00
2019-02-16T03:21:07.778Z,0.00
2019-02-16T03:22:07.785Z,0.00
2019-02-16T03:23:07.797Z,0.00
2019-02-16T03:24:07.806Z,0.00
2019-02-16T03:25:07.818Z,0.00
2019-02-16T03:26:07.828Z,0.00
2019-02-16T03:27:07.841Z,0.00
2019-02-16T03:28:07.849Z,0.00
2019-02-16T03:29:07.861Z,0.00
2019-02-16T03:30:07.875Z,0.00
2019-02-16T03:31:07.883Z,0.00
2019-02-16T03:32:07.896Z,0.00
2019-02-16T03:33:07.909Z,0.00
2019-02-16T03:34:07.918Z,0.00
2019-02-16T03:35:07.927Z,0.00
2019-02-16T03:36:07.937Z,0.00
2019-02-16T03:37:07.950Z,0.00
2019-02-16T03:38:07.964Z,0.00
2019-02-16T03:39:07.971Z,0.00
2019-02-16T03:40:07.989Z,0.00
2019-02-16T03:41:07.999Z,0.00
2019-02-16T03:42:08.005Z,0.00
2019-02-16T03:43:08.016Z,0.00
2019-02-16T03:44:08.065Z,0.00
2019-02-16T03:45:08.053Z,0.00
2019-02-16T03:46:08.091Z,0.00
2019-02-16T03:47:08.135Z,0.00
2019-02-16T03:48:08.114Z,0.00
2019-02-16T03:49:08.116Z,0.00
2019-02-16T03:50:08.118Z,0.00
2019-02-16T03:51:08.135Z,0.00
2019-02-16T03:52:13.764Z,0.00
2019-02-16T03:53:08.186Z,0.00
2019-02-16T03:54:08.181Z,0.00
2019-02-16T03:55:08.200Z,0.00
2019-02-16T03:56:08.171Z,0.00
2019-02-16T03:57:08.180Z,0.00
2019-02-16T03:58:08.182Z,0.00
2019-02-16T03:59:08.190Z,0.00
2019-02-16T04:00:08.198Z,0.00
2019-02-16T04:01:08.211Z,0.00
2019-02-16T04:02:08.226Z,0.00
2019-02-16T04:03:08.235Z,0.00
2019-02-16T04:04:08.246Z,0.00
2019-02-16T04:05:08.256Z,0.00
2019-02-16T04:06:08.266Z,0.00
2019-02-16T04:07:08.277Z,0.00
2019-02-16T04:08:08.289Z,0.00
2019-02-16T04:09:08.298Z,0.00
2019-02-16T04:10:08.311Z,0.00
2019-02-16T04:11:08.322Z,0.00
2019-02-16T04:12:08.333Z,0.00
2019-02-16T04:13:08.344Z,0.00
2019-02-16T04:14:08.355Z,0.00
2019-02-16T04:15:08.371Z,0.00
2019-02-16T04:16:08.378Z,0.00
2019-02-16T04:17:08.386Z,0.00
2019-02-16T04:18:08.396Z,0.00
2019-02-16T04:19:08.405Z,0.00
2019-02-16T04:20:08.421Z,0.00
2019-02-16T04:21:08.429Z,0.00
2019-02-16T04:22:08.441Z,0.00
2019-02-16T04:23:08.459Z,0.00
2019-02-16T04:24:08.462Z,0.00
2019-02-16T04:25:08.480Z,0.00
2019-02-16T04:26:08.483Z,0.00
2019-02-16T04:27:08.492Z,0.00
2019-02-16T04:28:08.504Z,0.00
2019-02-16T04:29:08.514Z,0.00
2019-02-16T04:30:08.526Z,0.00
2019-02-16T04:31:08.538Z,0.00
2019-02-16T04:32:08.553Z,0.00
2019-02-16T04:33:08.561Z,0.00
2019-02-16T04:34:08.571Z,0.00
2019-02-16T04:35:08.581Z,0.00
2019-02-16T04:36:08.590Z,0.00
2019-02-16T04:37:08.603Z,0.00
2019-02-16T04:38:08.618Z,0.00
2019-02-16T04:39:08.630Z,0.00
2019-02-16T04:40:08.634Z,0.00
2019-02-16T04:41:08.649Z,0.00
2019-02-16T04:42:08.656Z,0.00
2019-02-16T04:43:08.667Z,0.00
2019-02-16T04:44:08.675Z,0.00
2019-02-16T04:45:08.691Z,0.00
2019-02-16T04:46:08.700Z,0.00
2019-02-16T04:47:08.710Z,0.00
2019-02-16T04:48:08.720Z,0.00
2019-02-16T04:49:08.732Z,0.00
2019-02-16T04:50:08.745Z,0.00
2019-02-16T04:51:08.757Z,0.00
2019-02-16T04:52:08.775Z,0.00
2019-02-16T04:53:08.778Z,0.00
2019-02-16T04:54:08.784Z,0.00
2019-02-16T04:55:08.795Z,0.00
2019-02-16T04:56:08.805Z,0.00
2019-02-16T04:57:08.816Z,0.00
2019-02-16T04:58:08.832Z,0.00
2019-02-16T04:59:08.839Z,0.00
2019-02-16T05:00:08.854Z,0.00
2019-02-16T05:01:08.866Z,0.00
2019-02-16T05:02:08.871Z,0.00
2019-02-16T05:03:08.885Z,0.00
2019-02-16T05:04:08.891Z,0.00
2019-02-16T05:05:08.902Z,0.00
2019-02-16T05:06:08.912Z,0.00
2019-02-16T05:07:08.929Z,0.00
2019-02-16T05:08:08.931Z,0.00
2019-02-16T05:09:08.943Z,0.00
2019-02-16T05:10:08.956Z,0.00
2019-02-16T05:11:08.966Z,0.00
2019-02-16T05:12:08.976Z,0.00
2019-02-16T05:13:08.993Z,0.00
2019-02-16T05:14:08.999Z,0.00
2019-02-16T05:15:09.007Z,0.00
2019-02-16T05:16:09.016Z,0.00
2019-02-16T05:17:09.028Z,0.00
2019-02-16T05:18:09.038Z,0.00
2019-02-16T05:19:09.047Z,0.00
2019-02-16T05:20:09.063Z,0.00
2019-02-16T05:21:09.081Z,0.00
2019-02-16T05:22:09.082Z,0.00
2019-02-16T05:23:09.095Z,0.00
2019-02-16T05:24:09.103Z,0.00
2019-02-16T05:25:09.112Z,0.00
2019-02-16T05:26:09.125Z,0.00
2019-02-16T05:27:09.132Z,0.00
2019-02-16T05:28:09.144Z,0.00
2019-02-16T05:29:09.154Z,0.00
2019-02-16T05:30:09.175Z,0.00
2019-02-16T05:31:09.174Z,0.00
2019-02-16T05:32:09.186Z,0.00
2019-02-16T05:33:09.197Z,0.00
2019-02-16T05:34:09.208Z,0.00
2019-02-16T05:35:09.218Z,0.00
2019-02-16T05:36:09.228Z,0.00
2019-02-16T05:37:09.244Z,0.00
2019-02-16T05:38:09.250Z,0.00
2019-02-16T05:39:09.514Z,0.00
2019-02-16T05:40:09.275Z,0.00
2019-02-16T05:41:09.281Z,0.00
2019-02-16T05:42:09.295Z,0.00
2019-02-16T05:43:09.300Z,0.00
2019-02-16T05:44:09.311Z,0.00
2019-02-16T05:45:09.324Z,0.00
2019-02-16T05:46:09.331Z,0.00
2019-02-16T05:47:09.342Z,0.00
2019-02-16T05:48:09.351Z,0.00
2019-02-16T05:49:09.364Z,0.00
2019-02-16T05:50:09.373Z,0.00
2019-02-16T05:51:09.384Z,0.00
2019-02-16T05:52:09.402Z,0.00
2019-02-16T05:53:09.403Z,0.00
2019-02-16T05:54:09.419Z,0.00
2019-02-16T05:55:09.425Z,0.00
2019-02-16T05:56:09.437Z,0.00
2019-02-16T05:57:09.451Z,0.00
2019-02-16T05:58:09.456Z,0.00
2019-02-16T05:59:09.477Z,0.00
2019-02-16T06:00:09.477Z,0.00
2019-02-16T06:01:09.485Z,0.00
2019-02-16T06:02:09.498Z,0.00
2019-02-16T06:03:09.508Z,0.00
2019-02-16T06:04:09.519Z,0.00
2019-02-16T06:05:09.530Z,0.00
2019-02-16T06:06:09.539Z,0.00
2019-02-16T06:07:09.551Z,0.00
2019-02-16T06:08:09.560Z,0.00
2019-02-16T06:09:09.570Z,0.00
2019-02-16T06:10:09.582Z,0.00
2019-02-16T06:11:09.589Z,0.00
2019-02-16T06:12:09.599Z,0.00
2019-02-16T06:13:09.612Z,5.63
2019-02-16T06:14:09.623Z,5.63
2019-02-16T06:15:09.631Z,5.63
2019-02-16T06:16:09.642Z,5.63
2019-02-16T06:17:09.658Z,5.63
2019-02-16T06:18:09.663Z,5.63
2019-02-16T06:19:09.695Z,11.25
2019-02-16T06:20:09.682Z,11.25
2019-02-16T06:21:09.696Z,11.25
2019-02-16T06:22:09.703Z,11.25
2019-02-16T06:23:09.710Z,11.25
2019-02-16T06:24:09.721Z,16.88
2019-02-16T06:25:09.746Z,16.88
2019-02-16T06:26:09.746Z,16.88
2019-02-16T06:27:09.755Z,16.88
2019-02-16T06:28:09.764Z,22.50
2019-02-16T06:29:09.778Z,22.50
2019-02-16T06:30:09.783Z,22.50
2019-02-16T06:31:09.792Z,22.50
2019-02-16T06:32:09.805Z,28.13
2019-02-16T06:33:09.815Z,28.13
2019-02-16T06:34:09.835Z,28.13
2019-02-16T06:35:09.914Z,33.75
2019-02-16T06:36:09.925Z,33.75
2019-02-16T06:37:09.916Z,33.75
2019-02-16T06:38:09.922Z,33.75
2019-02-16T06:39:09.913Z,39.38
2019-02-16T06:40:09.971Z,39.38
2019-02-16T06:41:09.968Z,39.38
2019-02-16T06:42:09.976Z,45.00
2019-02-16T06:43:09.983Z,45.00
2019-02-16T06:44:09.978Z,45.00
2019-02-16T06:45:09.968Z,50.63
2019-02-16T06:46:09.976Z,50.63
2019-02-16T06:47:09.978Z,50.63
2019-02-16T06:48:09.965Z,50.63
2019-02-16T06:49:09.975Z,56.25
2019-02-16T06:50:09.988Z,56.25
2019-02-16T06:51:09.999Z,56.25
2019-02-16T06:52:10.007Z,61.88
2019-02-16T06:53:13.358Z,61.88
2019-02-16T06:54:10.029Z,61.88
2019-02-16T06:55:10.038Z,61.88
2019-02-16T06:56:10.049Z,67.50
2019-02-16T06:57:10.058Z,67.50
2019-02-16T06:58:10.071Z,67.50
2019-02-16T06:59:10.078Z,73.13
2019-02-16T07:00:10.086Z,73.13
2019-02-16T07:01:10.099Z,73.13
2019-02-16T07:02:10.111Z,73.13
2019-02-16T07:03:10.120Z,78.75
2019-02-16T07:04:10.130Z,78.75
2019-02-16T07:05:10.140Z,78.75
2019-02-16T07:06:10.150Z,78.75
2019-02-16T07:07:10.160Z,84.38
2019-02-16T07:08:10.167Z,84.38
2019-02-16T07:09:10.180Z,84.38
2019-02-16T07:10:10.189Z,84.38
2019-02-16T07:11:10.199Z,90.00
2019-02-16T07:12:10.210Z,90.00
2019-02-16T07:13:10.222Z,90.00
2019-02-16T07:14:10.231Z,90.00
2019-02-16T07:15:10.243Z,95.63
2019-02-16T07:16:10.253Z,95.63
2019-02-16T07:17:10.263Z,95.63
2019-02-16T07:18:10.272Z,95.63
2019-02-16T07:19:10.282Z,101.25
2019-02-16T07:20:10.292Z,101.25
2019-02-16T07:21:10.303Z,101.25
2019-02-16T07:22:10.327Z,101.25
2019-02-16T07:23:10.330Z,101.25
2019-02-16T07:24:10.338Z,106.88
2019-02-16T07:25:10.346Z,106.88
2019-02-16T07:26:10.358Z,106.88
2019-02-16T07:27:10.366Z,106.88
2019-02-16T07:28:10.376Z,106.88
2019-02-16T07:29:10.387Z,112.50
2019-02-16T07:30:10.396Z,112.50
2019-02-16T07:31:10.407Z,112.50
2019-02-16T07:32:10.415Z,112.50
2019-02-16T07:33:10.431Z,112.50
2019-02-16T07:34:10.440Z,118.13
2019-02-16T07:35:10.451Z,118.13
2019-02-16T07:36:10.463Z,118.13
2019-02-16T07:37:10.471Z,118.13
2019-02-16T07:38:10.480Z,118.13
2019-02-16T07:39:10.495Z,123.75
2019-02-16T07:40:10.503Z,123.75
2019-02-16T07:41:10.513Z,123.75
2019-02-16T07:42:10.524Z,123.75
2019-02-16T07:43:10.533Z,123.75
2019-02-16T07:44:10.546Z,123.75
2019-02-16T07:45:10.556Z,129.38
2019-02-16T07:46:10.569Z,129.38
2019-02-16T07:47:10.580Z,129.38
2019-02-16T07:48:10.588Z,129.38
2019-02-16T07:49:10.600Z,129.38
2019-02-16T07:50:10.611Z,129.38
2019-02-16T07:51:10.629Z,129.38
2019-02-16T07:52:10.633Z,135.00
2019-02-16T07:53:10.644Z,135.00
2019-02-16T07:54:10.659Z,135.00
2019-02-16T07:55:10.668Z,135.00
2019-02-16T07:56:10.680Z,135.00
2019-02-16T07:57:10.689Z,135.00
2019-02-16T07:58:10.700Z,135.00
2019-02-16T07:59:10.715Z,140.63
2019-02-16T08:00:10.722Z,140.63
2019-02-16T08:01:10.732Z,140.63
2019-02-16T08:02:10.741Z,140.63
2019-02-16T08:03:10.756Z,140.63
2019-02-16T08:04:10.763Z,140.63
2019-02-16T08:05:10.775Z,140.63
2019-02-16T08:06:10.787Z,146.25
2019-02-16T08:07:10.798Z,146.25
2019-02-16T08:08:10.813Z,146.25
2019-02-16T08:09:10.823Z,146.25
2019-02-16T08:10:10.832Z,146.25
2019-02-16T08:11:10.844Z,146.25
2019-02-16T08:12:10.854Z,146.25
2019-02-16T08:13:10.873Z,146.25
2019-02-16T08:14:10.879Z,151.88
2019-02-16T08:15:10.891Z,151.88
2019-02-16T08:16:10.900Z,151.88
2019-02-16T08:17:10.911Z,151.88
2019-02-16T08:18:10.925Z,151.88
2019-02-16T08:19:10.937Z,151.88
2019-02-16T08:20:10.948Z,151.88
2019-02-16T08:21:10.990Z,151.88
2019-02-16T08:22:10.971Z,151.88
2019-02-16T08:23:10.980Z,157.50
2019-02-16T08:24:10.996Z,157.50
2019-02-16T08:25:11.006Z,157.50
2019-02-16T08:26:11.022Z,157.50
2019-02-16T08:27:11.032Z,157.50
2019-02-16T08:28:11.045Z,157.50
2019-02-16T08:29:11.056Z,157.50
2019-02-16T08:30:11.068Z,157.50
2019-02-16T08:31:11.076Z,157.50
2019-02-16T08:32:11.091Z,163.13
2019-02-16T08:33:11.102Z,163.13
2019-02-16T08:34:11.142Z,163.13
2019-02-16T08:35:11.126Z,163.13
2019-02-16T08:36:11.138Z,163.13
2019-02-16T08:37:11.152Z,163.13
2019-02-16T08:38:11.166Z,163.13
2019-02-16T08:39:11.177Z,163.13
2019-02-16T08:40:11.188Z,163.13
2019-02-16T08:41:11.201Z,163.13
2019-02-16T08:42:11.211Z,168.75
2019-02-16T08:43:11.224Z,168.75
2019-02-16T08:44:11.240Z,168.75
2019-02-16T08:45:11.250Z,168.75
2019-02-16T08:46:11.263Z,168.75
2019-02-16T08:47:11.279Z,168.75
2019-02-16T08:48:11.287Z,168.75
2019-02-16T08:49:11.303Z,168.75
2019-02-16T08:50:11.312Z,168.75
2019-02-16T08:51:11.325Z,168.75
2019-02-16T08:52:11.334Z,168.75
2019-02-16T08:53:11.351Z,174.38
2019-02-16T08:54:11.363Z,174.38
2019-02-16T08:55:11.377Z,174.38
2019-02-16T08:56:11.391Z,174.38
2019-02-16T08:57:11.402Z,174.38
2019-02-16T08:58:11.414Z,174.38
2019-02-16T08:59:11.426Z,174.38
2019-02-16T09:00:11.442Z,174.38
2019-02-16T09:01:11.454Z,174.38
2019-02-16T09:02:11.467Z,174.38
2019-02-16T09:03:11.479Z,174.38
2019-02-16T09:04:11.496Z,174.38
2019-02-16T09:05:11.510Z,174.38
2019-02-16T09:06:11.523Z,180.00
2019-02-16T09:07:11.534Z,180.00
2019-02-16T09:08:11.551Z,180.00
2019-02-16T09:09:11.561Z,180.00
2019-02-16T09:10:11.573Z,180.00
2019-02-16T09:11:11.592Z,180.00
2019-02-16T09:12:11.600Z,180.00
2019-02-16T09:13:11.616Z,180.00
2019-02-16T09:14:11.641Z,180.00
2019-02-16T09:15:11.676Z,180.00
2019-02-16T09:16:11.717Z,180.00
2019-02-16T09:17:13.359Z,180.00
2019-02-16T09:18:11.722Z,180.00
2019-02-16T09:19:11.734Z,180.00
2019-02-16T09:20:11.782Z,180.00
2019-02-16T09:21:14.748Z,180.00
2019-02-16T09:22:13.395Z,185.63
2019-02-16T09:23:11.774Z,185.63
2019-02-16T09:24:11.775Z,185.63
2019-02-16T09:25:11.779Z,185.63
2019-02-16T09:26:11.797Z,185.63
2019-02-16T09:27:11.809Z,185.63
2019-02-16T09:28:11.822Z,185.63
2019-02-16T09:29:11.840Z,185.63
2019-02-16T09:30:11.850Z,185.63
2019-02-16T09:31:11.861Z,185.63
2019-02-16T09:32:13.136Z,185.63
2019-02-16T09:33:11.896Z,185.63
2019-02-16T09:34:11.906Z,185.63
2019-02-16T09:35:11.922Z,185.63
2019-02-16T09:36:11.937Z,185.63
2019-02-16T09:37:11.950Z,185.63
2019-02-16T09:38:11.967Z,191.25
2019-02-16T09:39:11.981Z,191.25
2019-02-16T09:40:11.997Z,191.25
2019-02-16T09:41:12.010Z,191.25
2019-02-16T09:42:12.024Z,191.25
2019-02-16T09:43:12.038Z,191.25
2019-02-16T09:44:12.053Z,191.25
2019-02-16T09:45:12.069Z,191.25
2019-02-16T09:46:12.088Z,191.25
2019-02-16T09:47:12.105Z,191.25
2019-02-16T09:48:12.115Z,191.25
2019-02-16T09:49:12.130Z,191.25
2019-02-16T09:50:12.146Z,191.25
2019-02-16T09:51:12.163Z,191.25
2019-02-16T09:52:12.176Z,191.25
2019-02-16T09:53:12.189Z,191.25
2019-02-16T09:54:12.203Z,191.25
2019-02-16T09:55:12.262Z,191.25
2019-02-16T09:56:12.233Z,191.25
2019-02-16T09:57:12.248Z,191.25
2019-02-16T09:58:12.266Z,191.25
2019-02-16T09:59:12.280Z,191.25
2019-02-16T10:00:13.882Z,191.25
2019-02-16T10:01:12.312Z,191.25
2019-02-16T10:02:12.330Z,191.25
2019-02-16T10:03:12.348Z,191.25
2019-02-16T10:04:12.356Z,191.25
2019-02-16T10:05:12.372Z,191.25
2019-02-16T10:06:12.391Z,191.25
2019-02-16T10:07:12.401Z,191.25
2019-02-16T10:08:12.420Z,191.25
2019-02-16T10:09:12.436Z,191.25
2019-02-16T10:10:12.454Z,191.25
2019-02-16T10:11:12.467Z,191.25
2019-02-16T10:12:12.481Z,191.25
2019-02-16T10:13:12.497Z,191.25
2019-02-16T10:14:12.513Z,191.25
2019-02-16T10:15:12.529Z,191.25
2019-02-16T10:16:12.544Z,191.25
2019-02-16T10:17:12.561Z,191.25
2019-02-16T10:18:12.578Z,191.25
2019-02-16T10:19:12.595Z,191.25
2019-02-16T10:20:12.610Z,191.25
2019-02-16T10:21:12.626Z,191.25
2019-02-16T10:22:12.642Z,191.25
2019-02-16T10:23:12.659Z,191.25
2019-02-16T10:24:17.830Z,191.25
2019-02-16T10:25:12.691Z,191.25
2019-02-16T10:26:12.705Z,191.25
2019-02-16T10:27:12.721Z,191.25
2019-02-16T10:28:12.745Z,196.88
2019-02-16T10:29:12.818Z,196.88
2019-02-16T10:30:12.774Z,196.88
2019-02-16T10:31:12.790Z,196.88
2019-02-16T10:32:12.813Z,196.88
2019-02-16T10:33:12.822Z,196.88
2019-02-16T10:34:12.838Z,196.88
2019-02-16T10:35:12.853Z,196.88
2019-02-16T10:36:12.870Z,196.88
2019-02-16T10:37:12.889Z,196.88
2019-02-16T10:38:12.904Z,196.88
2019-02-16T10:39:12.917Z,196.88
2019-02-16T10:40:12.939Z,196.88
2019-02-16T10:41:12.957Z,196.88
2019-02-16T10:42:12.972Z,196.88
2019-02-16T10:43:12.987Z,196.88
2019-02-16T10:44:13.009Z,196.88
2019-02-16T10:45:13.022Z,196.88
2019-02-16T10:46:13.037Z,196.88
2019-02-16T10:47:13.052Z,196.88
2019-02-16T10:48:13.069Z,196.88
2019-02-16T10:49:13.089Z,196.88
2019-02-16T10:50:13.135Z,196.88
2019-02-16T10:51:13.122Z,196.88
2019-02-16T10:52:13.148Z,196.88
2019-02-16T10:53:13.159Z,196.88
2019-02-16T10:54:13.172Z,196.88
2019-02-16T10:55:13.189Z,196.88
2019-02-16T10:56:13.208Z,196.88
2019-02-16T10:57:13.224Z,196.88
2019-02-16T10:58:13.243Z,196.88
2019-02-16T10:59:13.259Z,196.88
2019-02-16T11:00:13.277Z,196.88
2019-02-16T11:01:13.294Z,196.88
2019-02-16T11:02:14.652Z,196.88
2019-02-16T11:03:13.328Z,196.88
2019-02-16T11:04:13.344Z,196.88
2019-02-16T11:05:13.362Z,196.88
2019-02-16T11:06:13.385Z,196.88
2019-02-16T11:07:13.398Z,196.88
2019-02-16T11:08:13.417Z,196.88
2019-02-16T11:09:13.433Z,202.50
2019-02-16T11:10:13.453Z,196.88
2019-02-16T11:11:13.468Z,196.88
2019-02-16T11:12:13.491Z,196.88
2019-02-16T11:13:13.584Z,196.88
2019-02-16T11:14:13.570Z,196.88
2019-02-16T11:15:13.570Z,196.88
2019-02-16T11:16:13.636Z,196.88
2019-02-16T11:17:13.633Z,196.88
2019-02-16T11:18:13.634Z,196.88
2019-02-16T11:19:13.628Z,196.88
2019-02-16T11:20:13.657Z,196.88
2019-02-16T11:21:13.649Z,196.88
2019-02-16T11:22:13.664Z,196.88
2019-02-16T11:23:13.675Z,196.88
2019-02-16T11:24:13.695Z,196.88
2019-02-16T11:25:13.715Z,196.88
2019-02-16T11:26:13.735Z,196.88
2019-02-16T11:27:13.747Z,196.88
2019-02-16T11:28:13.768Z,196.88
2019-02-16T11:29:13.788Z,196.88
2019-02-16T11:30:13.805Z,196.88
2019-02-16T11:31:13.822Z,196.88
2019-02-16T11:32:13.842Z,196.88
2019-02-16T11:33:13.859Z,196.88
2019-02-16T11:34:13.874Z,196.88
2019-02-16T11:35:13.895Z,196.88
2019-02-16T11:36:13.911Z,196.88
2019-02-16T11:37:13.931Z,196.88
2019-02-16T11:38:13.949Z,196.88
2019-02-16T11:39:13.966Z,196.88
2019-02-16T11:40:13.985Z,196.88
2019-02-16T11:41:18.872Z,196.88
2019-02-16T11:42:14.020Z,196.88
2019-02-16T11:43:14.039Z,196.88
2019-02-16T11:44:14.106Z,196.88
2019-02-16T11:45:14.077Z,196.88
2019-02-16T11:46:14.093Z,196.88
2019-02-16T11:47:14.110Z,196.88
2019-02-16T11:48:14.129Z,196.88
2019-02-16T11:49:14.148Z,196.88
2019-02-16T11:50:14.168Z,196.88
2019-02-16T11:51:15.676Z,196.88
2019-02-16T11:52:14.204Z,196.88
2019-02-16T11:53:14.223Z,196.88
2019-02-16T11:54:14.240Z,202.50
2019-02-16T11:55:14.257Z,196.88
2019-02-16T11:56:14.281Z,196.88
2019-02-16T11:57:14.294Z,196.88
2019-02-16T11:58:14.316Z,202.50
2019-02-16T11:59:14.334Z,196.88
2019-02-16T12:00:14.353Z,196.88
2019-02-16T12:01:14.373Z,196.88
2019-02-16T12:02:14.389Z,196.88
2019-02-16T12:03:14.409Z,196.88
2019-02-16T12:04:14.427Z,196.88
2019-02-16T12:05:14.443Z,196.88
2019-02-16T12:06:14.466Z,196.88
2019-02-16T12:07:14.485Z,196.88
2019-02-16T12:08:14.502Z,196.88
2019-02-16T12:09:16.301Z,196.88
2019-02-16T12:10:14.540Z,196.88
2019-02-16T12:11:14.559Z,196.88
2019-02-16T12:12:14.581Z,196.88
2019-02-16T12:13:14.596Z,196.88
2019-02-16T12:14:14.616Z,196.88
2019-02-16T12:15:14.640Z,196.88
2019-02-16T12:16:14.653Z,196.88
2019-02-16T12:17:14.672Z,196.88
2019-02-16T12:18:14.694Z,196.88
2019-02-16T12:19:14.711Z,196.88
2019-02-16T12:20:14.729Z,196.88
2019-02-16T12:21:14.751Z,191.25
2019-02-16T12:22:14.768Z,191.25
2019-02-16T12:23:14.785Z,191.25
2019-02-16T12:24:14.805Z,191.25
2019-02-16T12:25:14.824Z,191.25
2019-02-16T12:26:14.849Z,191.25
2019-02-16T12:27:14.862Z,191.25
2019-02-16T12:28:14.885Z,191.25
2019-02-16T12:29:14.904Z,191.25
2019-02-16T12:30:14.924Z,191.25
2019-02-16T12:31:14.941Z,191.25
2019-02-16T12:32:14.961Z,191.25
2019-02-16T12:33:14.981Z,191.25
2019-02-16T12:34:15.000Z,191.25
2019-02-16T12:35:15.017Z,191.25
2019-02-16T12:36:15.037Z,191.25
2019-02-16T12:37:15.056Z,191.25
2019-02-16T12:38:15.078Z,191.25
2019-02-16T12:39:15.097Z,191.25
2019-02-16T12:40:15.118Z,191.25
2019-02-16T12:41:15.135Z,191.25
2019-02-16T12:42:15.154Z,191.25
2019-02-16T12:43:15.171Z,191.25
2019-02-16T12:44:15.192Z,191.25
2019-02-16T12:45:15.212Z,191.25
2019-02-16T12:46:15.234Z,191.25
2019-02-16T12:47:15.250Z,191.25
2019-02-16T12:48:15.280Z,191.25
2019-02-16T12:49:15.291Z,191.25
2019-02-16T12:50:15.313Z,191.25
2019-02-16T12:51:15.329Z,185.63
2019-02-16T12:52:15.350Z,185.63
2019-02-16T12:53:15.451Z,185.63
2019-02-16T12:54:15.454Z,185.63